sensor_id;sensor_type;location;lat;lon;timestamp;P1;durP1;ratioP1;P2;durP2;ratioP2
61435;SDS011;47304;47.456;19.160;2022-11-18T00:02:26;32.60;;;18.80;;
61435;SDS011;47304;47.456;19.160;2022-11-18T00:04:54;31.30;;;18.10;;
61435;SDS011;47304;47.456;19.160;2022-11-18T00:07:22;31.40;;;18.60;;
61435;SDS011;47304;47.456;19.160;2022-11-18T00:09:49;31.20;;;17.70;;
61435;SDS011;47304;47.456;19.160;2022-11-18T00:12:17;32.50;;;18.30;;
61435;SDS011;47304;47.456;19.160;2022-11-18T00:14:45;32.10;;;17.80;;
61435;SDS011;47304;47.456;19.160;2022-11-18T00:17:12;31.40;;;17.80;;
61435;SDS011;47304;47.456;19.160;2022-11-18T00:19:40;31.60;;;17.90;;
61435;SDS011;47304;47.456;19.160;2022-11-18T00:22:10;29.90;;;17.70;;
61435;SDS011;47304;47.456;19.160;2022-11-18T00:24:39;30.40;;;17.20;;
61435;SDS011;47304;47.456;19.160;2022-11-18T00:27:07;31.00;;;18.20;;
61435;SDS011;47304;47.456;19.160;2022-11-18T00:29:34;33.30;;;17.90;;
61435;SDS011;47304;47.456;19.160;2022-11-18T00:32:02;30.90;;;16.40;;
61435;SDS011;47304;47.456;19.160;2022-11-18T00:34:29;30.30;;;17.40;;
61435;SDS011;47304;47.456;19.160;2022-11-18T00:36:57;29.00;;;17.20;;
61435;SDS011;47304;47.456;19.160;2022-11-18T00:39:25;31.10;;;16.60;;
61435;SDS011;47304;47.456;19.160;2022-11-18T00:41:53;29.70;;;16.90;;
61435;SDS011;47304;47.456;19.160;2022-11-18T00:44:20;30.70;;;17.00;;
61435;SDS011;47304;47.456;19.160;2022-11-18T00:46:48;30.60;;;16.90;;
61435;SDS011;47304;47.456;19.160;2022-11-18T00:49:16;30.10;;;16.70;;
61435;SDS011;47304;47.456;19.160;2022-11-18T00:51:44;32.30;;;18.80;;
61435;SDS011;47304;47.456;19.160;2022-11-18T00:54:11;29.60;;;17.70;;
61435;SDS011;47304;47.456;19.160;2022-11-18T00:56:39;28.00;;;15.70;;
61435;SDS011;47304;47.456;19.160;2022-11-18T00:59:06;30.40;;;17.00;;
61435;SDS011;47304;47.456;19.160;2022-11-18T01:01:34;28.70;;;15.80;;
61435;SDS011;47304;47.456;19.160;2022-11-18T01:04:02;32.60;;;17.70;;
61435;SDS011;47304;47.456;19.160;2022-11-18T01:06:30;32.10;;;17.50;;
61435;SDS011;47304;47.456;19.160;2022-11-18T01:08:58;31.00;;;16.40;;
61435;SDS011;47304;47.456;19.160;2022-11-18T01:11:25;26.70;;;16.40;;
61435;SDS011;47304;47.456;19.160;2022-11-18T01:13:53;31.40;;;17.30;;
61435;SDS011;47304;47.456;19.160;2022-11-18T01:16:22;29.30;;;17.30;;
61435;SDS011;47304;47.456;19.160;2022-11-18T01:18:52;30.10;;;16.50;;
61435;SDS011;47304;47.456;19.160;2022-11-18T01:21:20;32.50;;;17.30;;
61435;SDS011;47304;47.456;19.160;2022-11-18T01:23:48;29.40;;;17.00;;
61435;SDS011;47304;47.456;19.160;2022-11-18T01:26:16;28.80;;;16.20;;
61435;SDS011;47304;47.456;19.160;2022-11-18T01:28:44;32.10;;;17.90;;
61435;SDS011;47304;47.456;19.160;2022-11-18T01:31:16;31.30;;;16.10;;
61435;SDS011;47304;47.456;19.160;2022-11-18T01:33:45;32.60;;;18.60;;
61435;SDS011;47304;47.456;19.160;2022-11-18T01:36:13;30.40;;;17.30;;
61435;SDS011;47304;47.456;19.160;2022-11-18T01:38:41;27.40;;;16.30;;
61435;SDS011;47304;47.456;19.160;2022-11-18T01:41:09;29.60;;;16.30;;
61435;SDS011;47304;47.456;19.160;2022-11-18T01:43:51;31.70;;;17.20;;
61435;SDS011;47304;47.456;19.160;2022-11-18T01:46:25;22.90;;;13.30;;
61435;SDS011;47304;47.456;19.160;2022-11-18T01:48:57;29.00;;;16.00;;
61435;SDS011;47304;47.456;19.160;2022-11-18T01:51:31;23.30;;;13.50;;
61435;SDS011;47304;47.456;19.160;2022-11-18T01:54:36;26.40;;;14.80;;
61435;SDS011;47304;47.456;19.160;2022-11-18T01:56:58;29.70;;;16.10;;
61435;SDS011;47304;47.456;19.160;2022-11-18T02:01:59;27.80;;;15.00;;
61435;SDS011;47304;47.456;19.160;2022-11-18T02:04:32;21.50;;;11.40;;
61435;SDS011;47304;47.456;19.160;2022-11-18T02:07:00;25.40;;;13.90;;
61435;SDS011;47304;47.456;19.160;2022-11-18T02:09:29;26.90;;;14.80;;
61435;SDS011;47304;47.456;19.160;2022-11-18T02:11:56;28.10;;;15.20;;
61435;SDS011;47304;47.456;19.160;2022-11-18T02:14:25;31.10;;;15.90;;
61435;SDS011;47304;47.456;19.160;2022-11-18T02:17:18;33.00;;;16.70;;
61435;SDS011;47304;47.456;19.160;2022-11-18T02:22:59;27.30;;;14.70;;
61435;SDS011;47304;47.456;19.160;2022-11-18T02:29:14;25.20;;;14.40;;
61435;SDS011;47304;47.456;19.160;2022-11-18T02:31:50;30.70;;;16.70;;
61435;SDS011;47304;47.456;19.160;2022-11-18T02:37:17;28.50;;;15.80;;
61435;SDS011;47304;47.456;19.160;2022-11-18T02:40:11;24.60;;;14.50;;
61435;SDS011;47304;47.456;19.160;2022-11-18T02:42:44;28.30;;;15.00;;
61435;SDS011;47304;47.456;19.160;2022-11-18T02:45:19;27.80;;;15.50;;
61435;SDS011;47304;47.456;19.160;2022-11-18T02:47:48;33.70;;;17.50;;
61435;SDS011;47304;47.456;19.160;2022-11-18T02:50:20;28.90;;;14.50;;
61435;SDS011;47304;47.456;19.160;2022-11-18T02:52:56;31.30;;;16.80;;
61435;SDS011;47304;47.456;19.160;2022-11-18T02:55:27;30.50;;;16.90;;
61435;SDS011;47304;47.456;19.160;2022-11-18T02:57:58;28.70;;;15.10;;
61435;SDS011;47304;47.456;19.160;2022-11-18T03:00:29;27.80;;;15.40;;
61435;SDS011;47304;47.456;19.160;2022-11-18T03:02:57;29.20;;;16.40;;
61435;SDS011;47304;47.456;19.160;2022-11-18T03:05:38;27.90;;;14.60;;
61435;SDS011;47304;47.456;19.160;2022-11-18T03:08:14;33.60;;;16.00;;
61435;SDS011;47304;47.456;19.160;2022-11-18T03:10:56;29.20;;;16.30;;
61435;SDS011;47304;47.456;19.160;2022-11-18T03:13:34;29.70;;;16.40;;
61435;SDS011;47304;47.456;19.160;2022-11-18T03:16:16;30.90;;;15.10;;
61435;SDS011;47304;47.456;19.160;2022-11-18T03:19:03;31.10;;;16.30;;
61435;SDS011;47304;47.456;19.160;2022-11-18T03:21:37;29.10;;;15.60;;
61435;SDS011;47304;47.456;19.160;2022-11-18T03:24:15;32.40;;;17.50;;
61435;SDS011;47304;47.456;19.160;2022-11-18T03:26:49;28.60;;;15.40;;
61435;SDS011;47304;47.456;19.160;2022-11-18T03:29:27;29.30;;;15.00;;
61435;SDS011;47304;47.456;19.160;2022-11-18T03:32:11;29.40;;;15.10;;
61435;SDS011;47304;47.456;19.160;2022-11-18T03:34:47;26.50;;;14.00;;
61435;SDS011;47304;47.456;19.160;2022-11-18T03:37:18;23.60;;;12.60;;
61435;SDS011;47304;47.456;19.160;2022-11-18T03:39:52;27.50;;;14.30;;
61435;SDS011;47304;47.456;19.160;2022-11-18T03:42:58;28.60;;;14.60;;
61435;SDS011;47304;47.456;19.160;2022-11-18T03:45:28;30.70;;;15.40;;
61435;SDS011;47304;47.456;19.160;2022-11-18T03:48:16;24.80;;;13.10;;
61435;SDS011;47304;47.456;19.160;2022-11-18T03:51:04;31.70;;;15.10;;
61435;SDS011;47304;47.456;19.160;2022-11-18T03:53:36;26.40;;;15.00;;
61435;SDS011;47304;47.456;19.160;2022-11-18T03:56:14;29.70;;;16.40;;
61435;SDS011;47304;47.456;19.160;2022-11-18T03:58:46;31.70;;;16.40;;
61435;SDS011;47304;47.456;19.160;2022-11-18T04:01:34;31.70;;;15.50;;
61435;SDS011;47304;47.456;19.160;2022-11-18T04:04:07;31.00;;;15.00;;
61435;SDS011;47304;47.456;19.160;2022-11-18T04:06:37;31.20;;;15.70;;
61435;SDS011;47304;47.456;19.160;2022-11-18T04:09:28;32.50;;;17.00;;
61435;SDS011;47304;47.456;19.160;2022-11-18T04:12:07;32.10;;;15.90;;
61435;SDS011;47304;47.456;19.160;2022-11-18T04:14:40;32.60;;;15.90;;
61435;SDS011;47304;47.456;19.160;2022-11-18T04:17:11;31.60;;;17.10;;
61435;SDS011;47304;47.456;19.160;2022-11-18T04:19:41;33.90;;;17.60;;
61435;SDS011;47304;47.456;19.160;2022-11-18T04:22:08;34.30;;;16.10;;
61435;SDS011;47304;47.456;19.160;2022-11-18T04:24:36;34.00;;;17.10;;
61435;SDS011;47304;47.456;19.160;2022-11-18T04:27:05;30.30;;;15.00;;
61435;SDS011;47304;47.456;19.160;2022-11-18T04:29:33;30.80;;;16.20;;
61435;SDS011;47304;47.456;19.160;2022-11-18T04:32:01;32.70;;;17.70;;
61435;SDS011;47304;47.456;19.160;2022-11-18T04:34:29;32.40;;;16.20;;
61435;SDS011;47304;47.456;19.160;2022-11-18T04:36:58;31.00;;;16.50;;
61435;SDS011;47304;47.456;19.160;2022-11-18T04:39:25;29.20;;;15.80;;
61435;SDS011;47304;47.456;19.160;2022-11-18T04:41:53;30.80;;;15.60;;
61435;SDS011;47304;47.456;19.160;2022-11-18T04:44:28;29.70;;;15.70;;
61435;SDS011;47304;47.456;19.160;2022-11-18T04:46:58;29.60;;;15.70;;
61435;SDS011;47304;47.456;19.160;2022-11-18T04:49:27;31.40;;;16.00;;
61435;SDS011;47304;47.456;19.160;2022-11-18T04:51:56;36.90;;;18.80;;
61435;SDS011;47304;47.456;19.160;2022-11-18T04:54:24;29.60;;;14.40;;
61435;SDS011;47304;47.456;19.160;2022-11-18T04:56:53;31.80;;;16.20;;
61435;SDS011;47304;47.456;19.160;2022-11-18T04:59:22;35.60;;;18.20;;
61435;SDS011;47304;47.456;19.160;2022-11-18T05:01:52;31.00;;;15.70;;
61435;SDS011;47304;47.456;19.160;2022-11-18T05:04:22;30.90;;;15.50;;
61435;SDS011;47304;47.456;19.160;2022-11-18T05:06:51;32.20;;;15.10;;
61435;SDS011;47304;47.456;19.160;2022-11-18T05:09:19;28.90;;;12.80;;
61435;SDS011;47304;47.456;19.160;2022-11-18T05:11:48;28.40;;;13.40;;
61435;SDS011;47304;47.456;19.160;2022-11-18T05:14:16;39.50;;;23.30;;
61435;SDS011;47304;47.456;19.160;2022-11-18T05:16:44;33.80;;;16.30;;
61435;SDS011;47304;47.456;19.160;2022-11-18T05:19:12;30.40;;;16.10;;
61435;SDS011;47304;47.456;19.160;2022-11-18T05:21:39;27.90;;;15.30;;
61435;SDS011;47304;47.456;19.160;2022-11-18T05:24:08;30.40;;;13.20;;
61435;SDS011;47304;47.456;19.160;2022-11-18T05:26:35;32.40;;;16.90;;
61435;SDS011;47304;47.456;19.160;2022-11-18T05:29:04;31.80;;;15.30;;
61435;SDS011;47304;47.456;19.160;2022-11-18T05:31:31;30.00;;;14.30;;
61435;SDS011;47304;47.456;19.160;2022-11-18T05:33:59;31.60;;;13.60;;
61435;SDS011;47304;47.456;19.160;2022-11-18T05:36:27;31.20;;;14.70;;
61435;SDS011;47304;47.456;19.160;2022-11-18T05:38:57;31.90;;;14.80;;
61435;SDS011;47304;47.456;19.160;2022-11-18T05:41:25;30.90;;;14.60;;
61435;SDS011;47304;47.456;19.160;2022-11-18T05:43:53;33.40;;;15.10;;
61435;SDS011;47304;47.456;19.160;2022-11-18T05:46:21;25.80;;;13.50;;
61435;SDS011;47304;47.456;19.160;2022-11-18T05:48:49;37.20;;;18.50;;
61435;SDS011;47304;47.456;19.160;2022-11-18T05:51:16;29.70;;;14.60;;
61435;SDS011;47304;47.456;19.160;2022-11-18T05:53:44;30.20;;;13.90;;
61435;SDS011;47304;47.456;19.160;2022-11-18T05:58:55;29.00;;;14.40;;
61435;SDS011;47304;47.456;19.160;2022-11-18T06:04:03;32.10;;;13.60;;
61435;SDS011;47304;47.456;19.160;2022-11-18T06:06:36;30.90;;;14.40;;
61435;SDS011;47304;47.456;19.160;2022-11-18T06:09:05;27.00;;;13.80;;
61435;SDS011;47304;47.456;19.160;2022-11-18T06:11:37;27.20;;;12.60;;
61435;SDS011;47304;47.456;19.160;2022-11-18T06:14:10;27.10;;;13.30;;
61435;SDS011;47304;47.456;19.160;2022-11-18T06:16:42;28.90;;;14.20;;
61435;SDS011;47304;47.456;19.160;2022-11-18T06:19:15;31.90;;;13.60;;
61435;SDS011;47304;47.456;19.160;2022-11-18T06:21:43;31.00;;;13.20;;
61435;SDS011;47304;47.456;19.160;2022-11-18T06:24:12;29.10;;;12.80;;
61435;SDS011;47304;47.456;19.160;2022-11-18T06:26:40;31.10;;;15.00;;
61435;SDS011;47304;47.456;19.160;2022-11-18T06:29:09;29.80;;;13.90;;
61435;SDS011;47304;47.456;19.160;2022-11-18T06:31:39;28.00;;;13.90;;
61435;SDS011;47304;47.456;19.160;2022-11-18T06:34:06;29.50;;;15.20;;
61435;SDS011;47304;47.456;19.160;2022-11-18T06:36:34;31.70;;;14.50;;
61435;SDS011;47304;47.456;19.160;2022-11-18T06:39:03;30.70;;;15.90;;
61435;SDS011;47304;47.456;19.160;2022-11-18T06:41:31;34.10;;;18.60;;
61435;SDS011;47304;47.456;19.160;2022-11-18T06:43:59;34.60;;;16.80;;
61435;SDS011;47304;47.456;19.160;2022-11-18T06:46:27;32.00;;;15.00;;
61435;SDS011;47304;47.456;19.160;2022-11-18T06:48:55;27.60;;;13.90;;
61435;SDS011;47304;47.456;19.160;2022-11-18T06:51:23;29.70;;;13.20;;
61435;SDS011;47304;47.456;19.160;2022-11-18T06:53:50;31.50;;;13.50;;
61435;SDS011;47304;47.456;19.160;2022-11-18T06:56:19;28.60;;;14.00;;
61435;SDS011;47304;47.456;19.160;2022-11-18T06:58:51;32.10;;;15.10;;
61435;SDS011;47304;47.456;19.160;2022-11-18T07:01:21;28.70;;;13.80;;
61435;SDS011;47304;47.456;19.160;2022-11-18T07:03:51;31.00;;;13.20;;
61435;SDS011;47304;47.456;19.160;2022-11-18T07:06:22;35.90;;;17.80;;
61435;SDS011;47304;47.456;19.160;2022-11-18T07:08:52;42.10;;;19.30;;
61435;SDS011;47304;47.456;19.160;2022-11-18T07:11:21;28.40;;;13.50;;
61435;SDS011;47304;47.456;19.160;2022-11-18T07:13:51;32.80;;;15.80;;
61435;SDS011;47304;47.456;19.160;2022-11-18T07:16:20;28.60;;;12.90;;
61435;SDS011;47304;47.456;19.160;2022-11-18T07:18:50;24.90;;;12.50;;
61435;SDS011;47304;47.456;19.160;2022-11-18T07:21:20;22.50;;;11.10;;
61435;SDS011;47304;47.456;19.160;2022-11-18T07:23:49;26.10;;;11.90;;
61435;SDS011;47304;47.456;19.160;2022-11-18T07:26:17;21.40;;;10.60;;
61435;SDS011;47304;47.456;19.160;2022-11-18T07:28:45;28.70;;;14.10;;
61435;SDS011;47304;47.456;19.160;2022-11-18T07:31:13;25.60;;;12.70;;
61435;SDS011;47304;47.456;19.160;2022-11-18T07:33:43;27.10;;;14.30;;
61435;SDS011;47304;47.456;19.160;2022-11-18T07:36:12;27.20;;;12.70;;
61435;SDS011;47304;47.456;19.160;2022-11-18T07:38:45;31.90;;;14.90;;
61435;SDS011;47304;47.456;19.160;2022-11-18T07:41:14;27.50;;;15.40;;
61435;SDS011;47304;47.456;19.160;2022-11-18T07:43:50;43.10;;;25.20;;
61435;SDS011;47304;47.456;19.160;2022-11-18T07:46:25;48.20;;;28.00;;
61435;SDS011;47304;47.456;19.160;2022-11-18T07:48:54;33.90;;;18.10;;
61435;SDS011;47304;47.456;19.160;2022-11-18T07:51:24;30.50;;;15.40;;
61435;SDS011;47304;47.456;19.160;2022-11-18T07:53:54;27.40;;;14.20;;
61435;SDS011;47304;47.456;19.160;2022-11-18T07:56:22;26.90;;;14.00;;
61435;SDS011;47304;47.456;19.160;2022-11-18T07:58:51;24.00;;;13.00;;
61435;SDS011;47304;47.456;19.160;2022-11-18T08:01:21;28.80;;;12.30;;
61435;SDS011;47304;47.456;19.160;2022-11-18T08:03:50;24.40;;;11.90;;
61435;SDS011;47304;47.456;19.160;2022-11-18T08:06:18;27.40;;;14.00;;
61435;SDS011;47304;47.456;19.160;2022-11-18T08:08:46;21.70;;;11.90;;
61435;SDS011;47304;47.456;19.160;2022-11-18T08:11:18;26.10;;;13.40;;
61435;SDS011;47304;47.456;19.160;2022-11-18T08:13:50;27.10;;;13.10;;
61435;SDS011;47304;47.456;19.160;2022-11-18T08:16:21;22.40;;;11.90;;
61435;SDS011;47304;47.456;19.160;2022-11-18T08:18:51;24.70;;;12.80;;
61435;SDS011;47304;47.456;19.160;2022-11-18T08:21:19;21.30;;;11.50;;
61435;SDS011;47304;47.456;19.160;2022-11-18T08:23:49;23.70;;;12.90;;
61435;SDS011;47304;47.456;19.160;2022-11-18T08:26:21;24.00;;;12.70;;
61435;SDS011;47304;47.456;19.160;2022-11-18T08:28:49;24.00;;;12.30;;
61435;SDS011;47304;47.456;19.160;2022-11-18T08:31:18;25.60;;;12.90;;
61435;SDS011;47304;47.456;19.160;2022-11-18T08:33:54;25.20;;;13.50;;
61435;SDS011;47304;47.456;19.160;2022-11-18T08:36:24;31.90;;;13.90;;
61435;SDS011;47304;47.456;19.160;2022-11-18T08:38:54;26.10;;;12.50;;
61435;SDS011;47304;47.456;19.160;2022-11-18T08:41:36;25.70;;;13.00;;
61435;SDS011;47304;47.456;19.160;2022-11-18T08:44:10;21.70;;;11.30;;
61435;SDS011;47304;47.456;19.160;2022-11-18T08:46:40;26.90;;;12.30;;
61435;SDS011;47304;47.456;19.160;2022-11-18T08:49:09;22.20;;;11.30;;
61435;SDS011;47304;47.456;19.160;2022-11-18T08:51:37;29.20;;;15.00;;
61435;SDS011;47304;47.456;19.160;2022-11-18T08:54:04;33.40;;;17.50;;
61435;SDS011;47304;47.456;19.160;2022-11-18T08:56:34;31.50;;;17.40;;
61435;SDS011;47304;47.456;19.160;2022-11-18T08:59:02;24.20;;;12.50;;
61435;SDS011;47304;47.456;19.160;2022-11-18T09:01:30;24.90;;;13.00;;
61435;SDS011;47304;47.456;19.160;2022-11-18T09:03:58;23.10;;;12.00;;
61435;SDS011;47304;47.456;19.160;2022-11-18T09:06:26;23.40;;;11.50;;
61435;SDS011;47304;47.456;19.160;2022-11-18T09:08:54;20.70;;;11.00;;
61435;SDS011;47304;47.456;19.160;2022-11-18T09:11:22;23.50;;;11.60;;
61435;SDS011;47304;47.456;19.160;2022-11-18T09:13:52;22.10;;;12.30;;
61435;SDS011;47304;47.456;19.160;2022-11-18T09:16:41;20.30;;;10.70;;
61435;SDS011;47304;47.456;19.160;2022-11-18T09:19:09;21.10;;;11.40;;
61435;SDS011;47304;47.456;19.160;2022-11-18T09:21:57;20.40;;;9.70;;
61435;SDS011;47304;47.456;19.160;2022-11-18T09:24:24;22.90;;;11.40;;
61435;SDS011;47304;47.456;19.160;2022-11-18T09:26:52;22.40;;;11.50;;
61435;SDS011;47304;47.456;19.160;2022-11-18T09:29:20;22.30;;;11.00;;
61435;SDS011;47304;47.456;19.160;2022-11-18T09:31:48;20.70;;;10.90;;
61435;SDS011;47304;47.456;19.160;2022-11-18T09:34:15;21.20;;;10.60;;
61435;SDS011;47304;47.456;19.160;2022-11-18T09:36:43;20.80;;;10.90;;
61435;SDS011;47304;47.456;19.160;2022-11-18T09:39:11;22.10;;;11.00;;
61435;SDS011;47304;47.456;19.160;2022-11-18T09:47:32;22.90;;;10.40;;
61435;SDS011;47304;47.456;19.160;2022-11-18T09:50:02;21.40;;;10.20;;
61435;SDS011;47304;47.456;19.160;2022-11-18T09:53:03;23.50;;;10.80;;
61435;SDS011;47304;47.456;19.160;2022-11-18T09:55:33;22.20;;;10.30;;
61435;SDS011;47304;47.456;19.160;2022-11-18T09:58:04;23.00;;;11.30;;
61435;SDS011;47304;47.456;19.160;2022-11-18T10:00:33;22.10;;;11.30;;
61435;SDS011;47304;47.456;19.160;2022-11-18T10:03:04;23.00;;;12.30;;
61435;SDS011;47304;47.456;19.160;2022-11-18T10:05:49;33.00;;;16.90;;
61435;SDS011;47304;47.456;19.160;2022-11-18T10:08:27;27.30;;;14.70;;
61435;SDS011;47304;47.456;19.160;2022-11-18T10:13:44;26.10;;;13.10;;
61435;SDS011;47304;47.456;19.160;2022-11-18T10:19:29;27.00;;;13.00;;
61435;SDS011;47304;47.456;19.160;2022-11-18T10:24:44;24.70;;;12.80;;
61435;SDS011;47304;47.456;19.160;2022-11-18T10:27:20;22.20;;;10.30;;
61435;SDS011;47304;47.456;19.160;2022-11-18T10:29:53;21.50;;;10.20;;
61435;SDS011;47304;47.456;19.160;2022-11-18T10:32:23;21.70;;;10.50;;
61435;SDS011;47304;47.456;19.160;2022-11-18T10:34:55;21.80;;;10.70;;
61435;SDS011;47304;47.456;19.160;2022-11-18T10:37:25;23.80;;;11.70;;
61435;SDS011;47304;47.456;19.160;2022-11-18T10:40:25;20.20;;;10.50;;
61435;SDS011;47304;47.456;19.160;2022-11-18T10:42:54;19.60;;;9.80;;
61435;SDS011;47304;47.456;19.160;2022-11-18T10:50:33;17.70;;;9.20;;
61435;SDS011;47304;47.456;19.160;2022-11-18T10:53:04;16.50;;;8.90;;
61435;SDS011;47304;47.456;19.160;2022-11-18T10:55:33;14.30;;;8.40;;
61435;SDS011;47304;47.456;19.160;2022-11-18T10:58:02;16.50;;;9.30;;
61435;SDS011;47304;47.456;19.160;2022-11-18T11:00:44;16.10;;;8.80;;
61435;SDS011;47304;47.456;19.160;2022-11-18T11:08:54;16.80;;;9.10;;
61435;SDS011;47304;47.456;19.160;2022-11-18T11:11:31;13.90;;;7.70;;
61435;SDS011;47304;47.456;19.160;2022-11-18T11:17:10;14.30;;;6.90;;
61435;SDS011;47304;47.456;19.160;2022-11-18T11:22:31;14.80;;;8.10;;
61435;SDS011;47304;47.456;19.160;2022-11-18T11:24:59;15.00;;;7.40;;
61435;SDS011;47304;47.456;19.160;2022-11-18T11:27:48;16.60;;;7.80;;
61435;SDS011;47304;47.456;19.160;2022-11-18T11:30:35;14.90;;;8.00;;
61435;SDS011;47304;47.456;19.160;2022-11-18T11:33:59;14.60;;;7.10;;
61435;SDS011;47304;47.456;19.160;2022-11-18T11:39:00;16.00;;;7.40;;
61435;SDS011;47304;47.456;19.160;2022-11-18T11:41:44;13.60;;;7.00;;
61435;SDS011;47304;47.456;19.160;2022-11-18T11:47:12;11.80;;;5.90;;
61435;SDS011;47304;47.456;19.160;2022-11-18T12:00:40;11.80;;;5.90;;
61435;SDS011;47304;47.456;19.160;2022-11-18T12:05:46;13.60;;;6.70;;
61435;SDS011;47304;47.456;19.160;2022-11-18T12:11:31;12.20;;;6.30;;
61435;SDS011;47304;47.456;19.160;2022-11-18T12:14:42;11.30;;;6.20;;
61435;SDS011;47304;47.456;19.160;2022-11-18T12:17:21;12.30;;;6.50;;
61435;SDS011;47304;47.456;19.160;2022-11-18T12:19:56;11.40;;;6.40;;
61435;SDS011;47304;47.456;19.160;2022-11-18T12:22:44;13.20;;;7.30;;
61435;SDS011;47304;47.456;19.160;2022-11-18T12:33:45;14.20;;;7.00;;
61435;SDS011;47304;47.456;19.160;2022-11-18T12:44:21;13.50;;;6.40;;
61435;SDS011;47304;47.456;19.160;2022-11-18T12:46:50;13.20;;;7.10;;
61435;SDS011;47304;47.456;19.160;2022-11-18T12:51:54;13.00;;;6.60;;
61435;SDS011;47304;47.456;19.160;2022-11-18T12:54:32;12.20;;;6.40;;
61435;SDS011;47304;47.456;19.160;2022-11-18T12:57:09;13.40;;;6.10;;
61435;SDS011;47304;47.456;19.160;2022-11-18T12:59:44;11.00;;;5.60;;
61435;SDS011;47304;47.456;19.160;2022-11-18T13:02:18;13.10;;;6.80;;
61435;SDS011;47304;47.456;19.160;2022-11-18T13:10:21;13.20;;;6.10;;
61435;SDS011;47304;47.456;19.160;2022-11-18T13:12:51;11.70;;;6.40;;
61435;SDS011;47304;47.456;19.160;2022-11-18T13:15:20;11.80;;;6.10;;
61435;SDS011;47304;47.456;19.160;2022-11-18T13:17:48;14.10;;;6.50;;
61435;SDS011;47304;47.456;19.160;2022-11-18T13:25:40;14.80;;;6.30;;
61435;SDS011;47304;47.456;19.160;2022-11-18T13:31:27;12.20;;;6.30;;
61435;SDS011;47304;47.456;19.160;2022-11-18T13:34:19;10.60;;;5.60;;
61435;SDS011;47304;47.456;19.160;2022-11-18T13:36:57;11.60;;;5.50;;
61435;SDS011;47304;47.456;19.160;2022-11-18T13:39:27;12.10;;;5.40;;
61435;SDS011;47304;47.456;19.160;2022-11-18T13:41:58;12.10;;;5.40;;
61435;SDS011;47304;47.456;19.160;2022-11-18T13:44:28;10.50;;;5.30;;
61435;SDS011;47304;47.456;19.160;2022-11-18T13:47:05;9.90;;;4.50;;
61435;SDS011;47304;47.456;19.160;2022-11-18T13:49:56;8.90;;;3.80;;
61435;SDS011;47304;47.456;19.160;2022-11-18T13:52:47;11.30;;;5.20;;
61435;SDS011;47304;47.456;19.160;2022-11-18T13:55:27;11.60;;;5.70;;
61435;SDS011;47304;47.456;19.160;2022-11-18T14:00:43;10.60;;;5.10;;
61435;SDS011;47304;47.456;19.160;2022-11-18T14:03:35;10.90;;;4.30;;
61435;SDS011;47304;47.456;19.160;2022-11-18T14:06:06;7.70;;;3.80;;
61435;SDS011;47304;47.456;19.160;2022-11-18T14:08:35;9.70;;;4.70;;
61435;SDS011;47304;47.456;19.160;2022-11-18T14:11:04;9.60;;;4.80;;
61435;SDS011;47304;47.456;19.160;2022-11-18T14:13:34;9.50;;;4.30;;
61435;SDS011;47304;47.456;19.160;2022-11-18T14:19:04;8.80;;;4.40;;
61435;SDS011;47304;47.456;19.160;2022-11-18T14:21:33;10.40;;;4.80;;
61435;SDS011;47304;47.456;19.160;2022-11-18T14:24:03;10.00;;;5.30;;
61435;SDS011;47304;47.456;19.160;2022-11-18T14:26:33;11.80;;;5.80;;
61435;SDS011;47304;47.456;19.160;2022-11-18T14:29:13;13.00;;;5.40;;
61435;SDS011;47304;47.456;19.160;2022-11-18T14:31:43;11.70;;;4.60;;
61435;SDS011;47304;47.456;19.160;2022-11-18T14:34:24;10.10;;;5.30;;
61435;SDS011;47304;47.456;19.160;2022-11-18T14:36:54;9.80;;;5.30;;
61435;SDS011;47304;47.456;19.160;2022-11-18T14:41:54;9.70;;;5.00;;
61435;SDS011;47304;47.456;19.160;2022-11-18T14:44:23;9.90;;;5.30;;
61435;SDS011;47304;47.456;19.160;2022-11-18T14:46:59;10.50;;;5.20;;
61435;SDS011;47304;47.456;19.160;2022-11-18T14:49:29;9.70;;;5.30;;
61435;SDS011;47304;47.456;19.160;2022-11-18T14:51:57;11.10;;;5.10;;
61435;SDS011;47304;47.456;19.160;2022-11-18T14:54:26;10.30;;;5.20;;
61435;SDS011;47304;47.456;19.160;2022-11-18T14:56:57;11.40;;;6.10;;
61435;SDS011;47304;47.456;19.160;2022-11-18T14:59:27;10.20;;;5.00;;
61435;SDS011;47304;47.456;19.160;2022-11-18T15:01:56;12.50;;;5.70;;
61435;SDS011;47304;47.456;19.160;2022-11-18T15:04:24;12.40;;;6.00;;
61435;SDS011;47304;47.456;19.160;2022-11-18T15:06:51;14.00;;;6.10;;
61435;SDS011;47304;47.456;19.160;2022-11-18T15:09:19;11.50;;;6.20;;
61435;SDS011;47304;47.456;19.160;2022-11-18T15:11:47;12.70;;;5.90;;
61435;SDS011;47304;47.456;19.160;2022-11-18T15:14:15;14.50;;;6.90;;
61435;SDS011;47304;47.456;19.160;2022-11-18T15:16:45;11.10;;;5.60;;
61435;SDS011;47304;47.456;19.160;2022-11-18T15:19:13;12.40;;;6.00;;
61435;SDS011;47304;47.456;19.160;2022-11-18T15:21:42;11.30;;;6.50;;
61435;SDS011;47304;47.456;19.160;2022-11-18T15:24:10;14.40;;;7.70;;
61435;SDS011;47304;47.456;19.160;2022-11-18T15:26:39;17.60;;;6.70;;
61435;SDS011;47304;47.456;19.160;2022-11-18T15:29:16;13.60;;;7.50;;
61435;SDS011;47304;47.456;19.160;2022-11-18T15:31:45;13.60;;;7.30;;
61435;SDS011;47304;47.456;19.160;2022-11-18T15:34:14;14.20;;;7.90;;
61435;SDS011;47304;47.456;19.160;2022-11-18T15:36:43;12.50;;;7.30;;
61435;SDS011;47304;47.456;19.160;2022-11-18T15:39:11;13.00;;;7.60;;
61435;SDS011;47304;47.456;19.160;2022-11-18T15:41:39;15.80;;;8.60;;
61435;SDS011;47304;47.456;19.160;2022-11-18T15:44:08;12.80;;;7.10;;
61435;SDS011;47304;47.456;19.160;2022-11-18T15:46:37;11.60;;;7.20;;
61435;SDS011;47304;47.456;19.160;2022-11-18T15:49:05;13.30;;;7.90;;
61435;SDS011;47304;47.456;19.160;2022-11-18T15:51:36;14.90;;;7.90;;
61435;SDS011;47304;47.456;19.160;2022-11-18T15:54:04;13.20;;;7.30;;
61435;SDS011;47304;47.456;19.160;2022-11-18T15:56:32;13.10;;;7.20;;
61435;SDS011;47304;47.456;19.160;2022-11-18T16:01:29;12.90;;;7.40;;
61435;SDS011;47304;47.456;19.160;2022-11-18T16:03:59;13.60;;;7.10;;
61435;SDS011;47304;47.456;19.160;2022-11-18T16:06:27;17.30;;;10.20;;
61435;SDS011;47304;47.456;19.160;2022-11-18T16:08:55;14.80;;;7.80;;
61435;SDS011;47304;47.456;19.160;2022-11-18T16:11:27;17.60;;;8.90;;
61435;SDS011;47304;47.456;19.160;2022-11-18T16:14:14;16.20;;;8.00;;
61435;SDS011;47304;47.456;19.160;2022-11-18T16:16:45;14.30;;;8.00;;
61435;SDS011;47304;47.456;19.160;2022-11-18T16:19:15;12.80;;;7.70;;
61435;SDS011;47304;47.456;19.160;2022-11-18T16:21:46;14.30;;;7.10;;
61435;SDS011;47304;47.456;19.160;2022-11-18T16:24:16;14.40;;;6.70;;
61435;SDS011;47304;47.456;19.160;2022-11-18T16:26:46;13.80;;;8.70;;
61435;SDS011;47304;47.456;19.160;2022-11-18T16:29:14;15.90;;;8.90;;
61435;SDS011;47304;47.456;19.160;2022-11-18T16:31:44;14.10;;;7.30;;
61435;SDS011;47304;47.456;19.160;2022-11-18T16:34:25;13.00;;;7.40;;
61435;SDS011;47304;47.456;19.160;2022-11-18T16:36:55;13.80;;;8.10;;